createdAt,value
2022-08-11T00:01:36.988Z,100.00
2022-08-11T00:04:05.984Z,100.00
2022-08-11T00:06:36.173Z,100.00
2022-08-11T00:09:07.161Z,100.00
2022-08-11T00:11:46.153Z,100.00
2022-08-11T00:14:37.336Z,100.00
2022-08-11T00:17:16.031Z,100.00
2022-08-11T00:20:12.232Z,100.00
2022-08-11T00:22:40.022Z,100.00
2022-08-11T00:25:15.576Z,100.00
2022-08-11T00:27:43.052Z,100.00
2022-08-11T00:30:12.097Z,100.00
2022-08-11T00:32:41.657Z,100.00
2022-08-11T00:35:51.650Z,100.00
2022-08-11T00:38:00.133Z,100.00
2022-08-11T00:40:44.401Z,100.00
2022-08-11T00:43:34.160Z,99.91
2022-08-11T00:46:23.295Z,99.55
2022-08-11T00:49:09.436Z,99.22
2022-08-11T00:52:04.878Z,99.27
2022-08-11T00:54:57.852Z,99.13
2022-08-11T00:57:55.442Z,99.28
2022-08-11T01:00:27.141Z,99.76
2022-08-11T01:03:18.362Z,100.00
2022-08-11T01:05:48.226Z,100.00
2022-08-11T01:08:17.746Z,100.00
2022-08-11T01:11:08.944Z,100.00
2022-08-11T01:13:48.033Z,99.96
2022-08-11T01:16:30.130Z,100.00
2022-08-11T01:19:30.830Z,100.00
2022-08-11T01:22:12.633Z,100.00
2022-08-11T01:25:01.103Z,100.00
2022-08-11T01:28:05.348Z,100.00
2022-08-11T01:31:13.669Z,100.00
2022-08-11T01:34:21.032Z,100.00
2022-08-11T01:37:17.643Z,100.00
2022-08-11T01:40:20.884Z,100.00
2022-08-11T01:43:16.024Z,100.00
2022-08-11T01:46:07.002Z,100.00
2022-08-11T01:48:45.143Z,100.00
2022-08-11T01:51:30.292Z,100.00
2022-08-11T01:54:10.389Z,100.00
2022-08-11T01:57:01.899Z,100.00
2022-08-11T01:59:48.746Z,100.00
2022-08-11T02:02:46.109Z,100.00
2022-08-11T02:05:48.147Z,100.00
2022-08-11T02:08:33.107Z,100.00
2022-08-11T02:11:35.299Z,100.00
2022-08-11T02:14:24.687Z,100.00
2022-08-11T02:17:19.195Z,100.00
2022-08-11T02:20:07.947Z,100.00
2022-08-11T02:23:23.071Z,100.00
2022-08-11T02:26:25.672Z,100.00
2022-08-11T02:29:15.184Z,100.00
2022-08-11T02:32:24.052Z,100.00
2022-08-11T02:34:59.468Z,100.00
2022-08-11T02:37:33.289Z,100.00
2022-08-11T02:40:03.388Z,100.00
2022-08-11T02:42:35.868Z,100.00
2022-08-11T02:45:35.217Z,100.00
2022-08-11T02:48:35.909Z,100.00
2022-08-11T02:51:31.186Z,100.00
2022-08-11T02:54:20.642Z,100.00
2022-08-11T02:57:11.343Z,100.00
2022-08-11T03:00:00.805Z,100.00
2022-08-11T03:02:51.187Z,100.00
2022-08-11T03:05:26.806Z,100.00
2022-08-11T03:08:15.057Z,100.00
2022-08-11T03:11:30.189Z,100.00
2022-08-11T03:14:39.524Z,100.00
2022-08-11T03:17:30.644Z,100.00
2022-08-11T03:20:08.827Z,100.00
2022-08-11T03:22:57.231Z,100.00
2022-08-11T03:25:49.680Z,100.00
2022-08-11T03:28:38.176Z,100.00
2022-08-11T03:31:24.907Z,100.00
2022-08-11T03:34:07.585Z,100.00
2022-08-11T03:37:15.481Z,100.00
2022-08-11T03:39:57.760Z,100.00
2022-08-11T03:42:46.869Z,100.00
2022-08-11T03:45:49.262Z,99.58
2022-08-11T03:48:25.336Z,98.95
2022-08-11T03:51:09.912Z,98.52
2022-08-11T03:53:42.796Z,98.70
2022-08-11T03:56:40.454Z,98.60
2022-08-11T03:59:29.128Z,98.77
2022-08-11T04:02:26.967Z,99.06
2022-08-11T04:05:21.926Z,99.10
2022-08-11T04:08:36.821Z,99.64
2022-08-11T04:11:45.728Z,100.00
2022-08-11T04:15:14.717Z,99.70
2022-08-11T04:18:05.359Z,99.36
2022-08-11T04:21:06.048Z,99.02
2022-08-11T04:24:35.360Z,99.31
2022-08-11T04:27:19.606Z,98.30
2022-08-11T04:30:09.251Z,98.25
2022-08-11T04:33:10.515Z,97.35
2022-08-11T04:35:54.061Z,96.10
2022-08-11T04:38:49.310Z,95.05
2022-08-11T04:42:28.425Z,93.51
2022-08-11T04:45:35.031Z,93.25
2022-08-11T04:48:35.506Z,92.19
2022-08-11T04:51:32.885Z,90.70
2022-08-11T04:54:33.702Z,91.88
2022-08-11T04:57:27.872Z,91.85
2022-08-11T05:00:24.758Z,90.76
2022-08-11T05:03:25.491Z,89.52
2022-08-11T05:06:29.971Z,88.47
2022-08-11T05:09:20.798Z,87.80
2022-08-11T05:12:01.600Z,87.11
2022-08-11T05:15:10.230Z,87.24
2022-08-11T05:18:18.606Z,87.22
2022-08-11T05:21:14.924Z,87.49
2022-08-11T05:24:07.674Z,87.70
2022-08-11T05:27:04.596Z,87.18
2022-08-11T05:30:05.913Z,87.84
2022-08-11T05:33:00.936Z,87.31
2022-08-11T05:36:02.294Z,87.82
2022-08-11T05:38:52.623Z,88.24
2022-08-11T05:41:41.024Z,88.32
2022-08-11T05:44:28.641Z,88.89
2022-08-11T05:47:15.076Z,86.77
2022-08-11T05:50:00.844Z,86.52
2022-08-11T05:52:49.283Z,85.46
2022-08-11T05:56:02.809Z,85.63
2022-08-11T05:58:42.578Z,83.40
2022-08-11T06:01:13.227Z,81.17
2022-08-11T06:04:03.559Z,80.60
2022-08-11T06:06:30.972Z,79.28
2022-08-11T06:09:00.736Z,78.44
2022-08-11T06:11:43.809Z,76.67
2022-08-11T06:14:12.319Z,75.05
2022-08-11T06:16:42.003Z,73.46
2022-08-11T06:19:10.444Z,73.08
2022-08-11T06:21:38.039Z,71.43
2022-08-11T06:24:11.900Z,70.25
2022-08-11T06:27:09.073Z,70.04
2022-08-11T06:29:47.672Z,70.00
2022-08-11T06:32:16.236Z,70.31
2022-08-11T06:35:04.330Z,70.42
2022-08-11T06:37:49.928Z,70.53
2022-08-11T06:40:40.266Z,70.21
2022-08-11T06:43:21.696Z,70.52
2022-08-11T06:46:05.981Z,70.60
2022-08-11T06:48:34.780Z,71.53
2022-08-11T06:51:12.149Z,71.89
2022-08-11T06:54:04.353Z,72.10
2022-08-11T06:57:27.850Z,73.17
2022-08-11T07:00:04.581Z,73.02
2022-08-11T07:03:02.238Z,74.11
2022-08-11T07:05:37.829Z,75.18
2022-08-11T07:09:11.428Z,77.86
2022-08-11T07:12:12.602Z,79.08
2022-08-11T07:15:06.146Z,79.96
2022-08-11T07:17:37.958Z,80.87
2022-08-11T07:20:25.263Z,83.12
2022-08-11T07:23:17.109Z,85.77
2022-08-11T07:26:06.318Z,88.94
2022-08-11T07:28:56.018Z,92.42
2022-08-11T07:31:29.247Z,94.10
2022-08-11T07:34:13.222Z,94.07
2022-08-11T07:36:49.423Z,95.76
2022-08-11T07:39:25.100Z,96.09
2022-08-11T07:41:54.439Z,96.81
2022-08-11T07:44:30.774Z,98.15
2022-08-11T07:47:19.169Z,100.00
2022-08-11T07:50:07.181Z,100.00
2022-08-11T07:52:38.085Z,100.00
2022-08-11T07:55:08.476Z,100.00
2022-08-11T07:58:16.249Z,100.00
2022-08-11T08:01:10.735Z,100.00
2022-08-11T08:04:08.363Z,99.89
2022-08-11T08:06:55.625Z,98.91
2022-08-11T08:09:42.368Z,98.09
2022-08-11T08:12:28.526Z,98.09
2022-08-11T08:15:15.873Z,97.97
2022-08-11T08:18:09.349Z,97.67
2022-08-11T08:20:47.368Z,97.83
2022-08-11T08:23:15.192Z,98.21
2022-08-11T08:25:44.605Z,98.47
2022-08-11T08:28:15.969Z,98.96
2022-08-11T08:30:56.243Z,99.00
2022-08-11T08:33:25.107Z,97.44
2022-08-11T08:36:17.155Z,95.72
2022-08-11T08:38:57.012Z,93.66
2022-08-11T08:41:32.408Z,92.93
2022-08-11T08:44:35.055Z,91.01
2022-08-11T08:46:59.990Z,89.19
2022-08-11T08:49:40.169Z,88.20
2022-08-11T08:52:42.683Z,87.41
2022-08-11T08:55:02.780Z,85.73
2022-08-11T08:57:38.946Z,85.67
2022-08-11T09:00:08.773Z,83.28
2022-08-11T09:02:40.033Z,81.19
2022-08-11T09:05:09.942Z,80.26
2022-08-11T09:07:40.626Z,79.15
2022-08-11T09:10:11.871Z,78.21
2022-08-11T09:12:42.651Z,76.20
2022-08-11T09:15:11.945Z,75.80
2022-08-11T09:18:06.109Z,75.80
2022-08-11T09:20:35.185Z,75.67
2022-08-11T09:26:30.299Z,74.93
2022-08-11T09:28:59.520Z,74.72
2022-08-11T09:31:31.241Z,74.36
2022-08-11T09:34:00.966Z,74.52
2022-08-11T09:36:47.271Z,74.81
2022-08-11T09:39:33.296Z,75.34
2022-08-11T09:42:04.751Z,75.80
2022-08-11T09:44:49.209Z,72.47
2022-08-11T09:47:30.764Z,67.80
2022-08-11T09:50:01.215Z,64.41
2022-08-11T09:52:30.993Z,60.68
2022-08-11T09:54:58.647Z,58.49
2022-08-11T09:57:44.989Z,56.22
2022-08-11T10:00:14.257Z,54.93
2022-08-11T10:02:48.836Z,52.98
2022-08-11T10:05:38.049Z,51.58
2022-08-11T10:08:07.398Z,52.13
2022-08-11T10:10:39.282Z,53.24
2022-08-11T10:14:30.632Z,54.17
2022-08-11T10:16:15.599Z,54.51
2022-08-11T10:18:53.050Z,54.27
2022-08-11T10:21:28.353Z,53.89
2022-08-11T10:24:19.091Z,53.50
2022-08-11T10:26:51.454Z,53.86
2022-08-11T10:29:52.016Z,53.67
2022-08-11T10:32:57.471Z,54.03
2022-08-11T10:35:28.284Z,55.64
2022-08-11T10:38:08.558Z,58.17
2022-08-11T10:40:39.636Z,60.71
2022-08-11T10:43:13.821Z,63.11
2022-08-11T10:46:05.127Z,65.85
2022-08-11T10:48:39.124Z,68.78
2022-08-11T10:51:13.254Z,71.34
2022-08-11T10:54:05.028Z,73.86
2022-08-11T10:56:53.736Z,76.56
2022-08-11T10:59:22.370Z,79.07
2022-08-11T11:01:52.354Z,80.31
2022-08-11T11:04:29.202Z,81.63
2022-08-11T11:07:30.177Z,82.90
2022-08-11T11:10:06.339Z,84.88
2022-08-11T11:13:01.000Z,84.92
2022-08-11T11:15:48.638Z,85.28
2022-08-11T11:18:36.005Z,85.11
2022-08-11T11:21:14.644Z,83.82
2022-08-11T11:24:03.435Z,80.91
2022-08-11T11:26:50.412Z,79.15
2022-08-11T11:29:35.744Z,77.86
2022-08-11T11:32:17.824Z,75.02
2022-08-11T11:35:06.291Z,73.58
2022-08-11T11:37:36.718Z,72.72
2022-08-11T11:40:13.330Z,71.13
2022-08-11T11:42:42.444Z,69.80
2022-08-11T11:45:22.615Z,64.77
2022-08-11T11:47:54.482Z,60.60
2022-08-11T11:50:32.737Z,54.79
2022-08-11T11:53:03.834Z,53.13
2022-08-11T11:55:31.629Z,50.33
2022-08-11T11:58:20.446Z,48.30
2022-08-11T12:01:09.732Z,46.68
2022-08-11T12:03:38.038Z,46.75
2022-08-11T12:06:07.070Z,45.87
2022-08-11T12:08:35.685Z,46.71
2022-08-11T12:11:25.384Z,46.51
2022-08-11T12:13:53.987Z,45.07
2022-08-11T12:16:33.793Z,44.90
2022-08-11T12:19:07.132Z,45.00
2022-08-11T12:21:36.517Z,45.75
2022-08-11T12:24:28.475Z,46.23
2022-08-11T12:27:17.615Z,46.39
2022-08-11T12:29:55.645Z,46.91
2022-08-11T12:32:27.710Z,47.42
2022-08-11T12:34:56.943Z,45.11
2022-08-11T12:37:30.411Z,46.35
2022-08-11T12:40:43.635Z,46.51
2022-08-11T12:43:37.763Z,47.95
2022-08-11T12:46:09.773Z,48.08
2022-08-11T12:49:02.449Z,48.32
2022-08-11T12:52:00.731Z,48.36
2022-08-11T12:54:57.789Z,49.42
2022-08-11T12:58:05.587Z,49.62
2022-08-11T13:00:52.057Z,49.54
2022-08-11T13:03:40.310Z,49.47
2022-08-11T13:06:08.742Z,49.63
2022-08-11T13:08:38.633Z,50.27
2022-08-11T13:11:25.275Z,51.14
2022-08-11T13:14:15.355Z,51.09
2022-08-11T13:17:03.509Z,51.38
2022-08-11T13:19:31.163Z,50.20
2022-08-11T13:21:58.929Z,50.67
2022-08-11T13:24:26.357Z,50.16
2022-08-11T13:26:53.537Z,51.64
2022-08-11T13:29:23.359Z,50.21
2022-08-11T13:31:52.154Z,50.49
2022-08-11T13:34:21.370Z,51.66
2022-08-11T13:36:52.175Z,50.40
2022-08-11T13:39:23.912Z,51.67
2022-08-11T13:41:52.322Z,52.65
2022-08-11T13:44:25.294Z,52.69
2022-08-11T13:46:56.420Z,52.74
2022-08-11T13:49:24.612Z,52.09
2022-08-11T13:51:53.029Z,51.81
2022-08-11T13:54:23.905Z,51.57
2022-08-11T13:56:54.757Z,51.40
2022-08-11T13:59:29.968Z,51.42
2022-08-11T14:02:28.481Z,50.39
2022-08-11T14:04:57.605Z,49.13
2022-08-11T14:07:34.801Z,50.85
2022-08-11T14:10:03.030Z,53.10
2022-08-11T14:12:50.834Z,55.23
2022-08-11T14:15:22.704Z,56.67
2022-08-11T14:17:54.887Z,57.25
2022-08-11T14:20:38.541Z,59.53
2022-08-11T14:23:12.588Z,60.69
2022-08-11T14:26:02.372Z,61.14
2022-08-11T14:28:37.812Z,63.32
2022-08-11T14:31:09.619Z,63.81
2022-08-11T14:33:58.691Z,65.17
2022-08-11T14:36:27.009Z,65.98
2022-08-11T14:38:55.070Z,67.00
2022-08-11T14:42:12.613Z,66.99
2022-08-11T14:44:50.125Z,68.03
2022-08-11T14:47:24.332Z,67.61
2022-08-11T14:50:10.398Z,68.42
2022-08-11T14:53:04.987Z,68.27
2022-08-11T14:56:01.252Z,68.42
2022-08-11T14:58:31.356Z,67.71
2022-08-11T15:01:00.118Z,67.45
2022-08-11T15:03:30.573Z,67.49
2022-08-11T15:06:02.116Z,66.34
2022-08-11T15:08:52.266Z,66.01
2022-08-11T15:11:41.015Z,64.96
2022-08-11T15:14:10.945Z,66.12
2022-08-11T15:17:00.569Z,66.17
2022-08-11T15:19:30.079Z,66.86
2022-08-11T15:22:28.158Z,67.71
2022-08-11T15:24:57.552Z,69.04
2022-08-11T15:27:44.392Z,69.39
2022-08-11T15:30:33.100Z,70.02
2022-08-11T15:33:27.684Z,71.95
2022-08-11T15:36:15.612Z,72.77
2022-08-11T15:38:55.371Z,73.36
2022-08-11T15:41:45.061Z,73.50
2022-08-11T15:45:01.708Z,75.14
2022-08-11T15:47:33.239Z,74.93
2022-08-11T15:50:10.397Z,75.75
2022-08-11T15:52:48.275Z,75.78
2022-08-11T15:55:16.967Z,76.86
2022-08-11T15:58:06.086Z,77.38
2022-08-11T16:00:59.082Z,77.99
2022-08-11T16:04:09.549Z,77.67
2022-08-11T16:06:55.985Z,78.74
2022-08-11T16:09:36.929Z,79.58
2022-08-11T16:12:19.075Z,79.56
2022-08-11T16:15:09.492Z,79.79
2022-08-11T16:17:45.847Z,79.86
2022-08-11T16:20:15.962Z,79.38
2022-08-11T16:22:58.944Z,79.64
2022-08-11T16:27:01.593Z,79.04
2022-08-11T16:28:21.718Z,78.64
2022-08-11T16:30:49.476Z,78.79
2022-08-11T16:33:49.138Z,78.48
2022-08-11T16:36:24.893Z,79.90
2022-08-11T16:38:53.800Z,79.27
2022-08-11T16:41:43.001Z,79.56
2022-08-11T16:44:36.864Z,80.57
2022-08-11T16:47:11.181Z,80.58
2022-08-11T16:49:52.852Z,81.39
2022-08-11T16:52:22.877Z,81.13
2022-08-11T16:54:50.151Z,81.00
2022-08-11T16:57:46.345Z,81.20
2022-08-11T17:00:16.255Z,80.86
2022-08-11T17:03:06.035Z,81.37
2022-08-11T17:05:57.777Z,81.48
2022-08-11T17:08:57.258Z,83.28
2022-08-11T17:11:49.395Z,82.32
2022-08-11T17:14:34.826Z,82.15
2022-08-11T17:17:11.885Z,83.18
2022-08-11T17:20:41.139Z,82.69
2022-08-11T17:22:55.938Z,82.79
2022-08-11T17:25:25.888Z,83.01
2022-08-11T17:27:54.426Z,82.95
2022-08-11T17:30:23.393Z,83.67
2022-08-11T17:33:11.533Z,83.64
2022-08-11T17:35:41.191Z,83.51
2022-08-11T17:38:14.276Z,83.75
2022-08-11T17:41:06.109Z,83.93
2022-08-11T17:43:52.706Z,84.07
2022-08-11T17:46:39.179Z,84.58
2022-08-11T17:49:08.607Z,84.99
2022-08-11T17:51:55.900Z,85.20
2022-08-11T17:54:43.090Z,85.26
2022-08-11T17:57:30.599Z,85.12
2022-08-11T17:59:59.718Z,85.65
2022-08-11T18:03:00.464Z,85.78
2022-08-11T18:05:30.826Z,87.34
2022-08-11T18:08:18.812Z,87.29
2022-08-11T18:11:06.648Z,87.71
2022-08-11T18:13:56.296Z,87.87
2022-08-11T18:16:42.246Z,88.65
2022-08-11T18:19:30.825Z,89.06
2022-08-11T18:22:24.074Z,89.06
2022-08-11T18:25:12.230Z,89.33
2022-08-11T18:28:01.305Z,89.40
2022-08-11T18:30:52.163Z,89.59
2022-08-11T18:34:06.852Z,89.72
2022-08-11T18:37:07.636Z,89.19
2022-08-11T18:39:56.523Z,89.56
2022-08-11T18:42:43.825Z,89.23
2022-08-11T18:45:39.962Z,89.99
2022-08-11T18:48:35.921Z,89.69
2022-08-11T18:51:30.624Z,89.65
2022-08-11T18:54:23.020Z,89.09
2022-08-11T18:57:08.749Z,89.24
2022-08-11T18:59:57.412Z,89.25
2022-08-11T19:02:49.470Z,89.74
2022-08-11T19:06:05.976Z,89.45
2022-08-11T19:08:49.377Z,90.27
2022-08-11T19:11:42.396Z,91.18
2022-08-11T19:14:30.655Z,91.47
2022-08-11T19:17:43.612Z,91.33
2022-08-11T19:20:29.314Z,91.00
2022-08-11T19:23:16.639Z,91.04
2022-08-11T19:26:03.776Z,91.36
2022-08-11T19:28:50.600Z,91.68
2022-08-11T19:31:42.295Z,92.05
2022-08-11T19:34:34.804Z,92.42
2022-08-11T19:37:24.699Z,93.76
2022-08-11T19:40:19.619Z,94.20
2022-08-11T19:43:14.778Z,94.47
2022-08-11T19:46:16.179Z,94.70
2022-08-11T19:49:10.149Z,94.56
2022-08-11T19:51:56.954Z,93.96
2022-08-11T19:54:45.553Z,93.92
2022-08-11T19:57:37.187Z,93.98
2022-08-11T20:00:35.012Z,93.84
2022-08-11T20:03:23.566Z,93.63
2022-08-11T20:06:10.779Z,93.01
2022-08-11T20:09:00.739Z,93.17
2022-08-11T20:11:50.668Z,93.31
2022-08-11T20:14:38.529Z,92.72
2022-08-11T20:17:29.915Z,93.38
2022-08-11T20:20:18.718Z,92.54
2022-08-11T20:23:06.330Z,93.00
2022-08-11T20:25:55.820Z,92.92
2022-08-11T20:28:50.763Z,93.18
2022-08-11T20:31:39.216Z,93.16
2022-08-11T20:34:28.102Z,92.86
2022-08-11T20:37:15.166Z,93.00
2022-08-11T20:40:02.383Z,92.84
2022-08-11T20:42:51.790Z,92.86
2022-08-11T20:45:52.133Z,92.86
2022-08-11T20:48:43.749Z,93.26
2022-08-11T20:51:36.755Z,93.13
2022-08-11T20:54:43.390Z,92.78
2022-08-11T20:58:00.230Z,92.62
2022-08-11T21:00:40.965Z,92.68
2022-08-11T21:03:35.332Z,92.41
2022-08-11T21:06:26.303Z,92.60
2022-08-11T21:09:21.076Z,93.09
2022-08-11T21:12:13.406Z,92.53
2022-08-11T21:14:59.826Z,92.98
2022-08-11T21:18:06.090Z,93.75
2022-08-11T21:20:55.617Z,94.10
2022-08-11T21:23:43.086Z,94.79
2022-08-11T21:26:33.717Z,94.37
2022-08-11T21:29:21.078Z,94.91
2022-08-11T21:32:07.108Z,94.80
2022-08-11T21:34:53.716Z,95.23
2022-08-11T21:37:41.500Z,95.79
2022-08-11T21:40:29.011Z,95.46
2022-08-11T21:43:18.281Z,95.31
2022-08-11T21:46:05.497Z,96.26
2022-08-11T21:48:53.090Z,96.23
2022-08-11T21:51:38.723Z,96.20
2022-08-11T21:54:30.251Z,96.67
2022-08-11T21:57:16.675Z,97.30
2022-08-11T22:00:15.457Z,97.16
2022-08-11T22:03:04.204Z,97.06
2022-08-11T22:05:51.666Z,96.79
2022-08-11T22:08:37.586Z,97.20
2022-08-11T22:11:31.851Z,97.21
2022-08-11T22:14:22.731Z,97.64
2022-08-11T22:17:08.917Z,96.95
2022-08-11T22:19:59.717Z,97.53
2022-08-11T22:22:52.804Z,97.54
2022-08-11T22:25:51.205Z,97.53
2022-08-11T22:28:38.349Z,97.52
2022-08-11T22:31:25.835Z,97.68
2022-08-11T22:34:11.202Z,97.92
2022-08-11T22:36:57.791Z,99.22
2022-08-11T22:39:44.961Z,99.35
2022-08-11T22:42:45.927Z,99.54
2022-08-11T22:45:31.971Z,99.14
2022-08-11T22:48:19.334Z,99.14
2022-08-11T22:51:05.571Z,99.13
2022-08-11T22:53:55.011Z,98.96
2022-08-11T22:56:46.238Z,98.91
2022-08-11T22:59:32.907Z,99.63
2022-08-11T23:02:18.155Z,99.18
2022-08-11T23:05:03.764Z,99.21
2022-08-11T23:07:51.479Z,99.17
2022-08-11T23:10:39.588Z,98.89
2022-08-11T23:13:26.704Z,99.53
2022-08-11T23:16:15.696Z,99.61
2022-08-11T23:19:01.841Z,99.13
2022-08-11T23:21:47.977Z,99.11
2022-08-11T23:24:34.464Z,99.12
2022-08-11T23:27:21.309Z,99.85
2022-08-11T23:30:09.490Z,100.00
2022-08-11T23:32:56.656Z,100.00
2022-08-11T23:35:53.572Z,99.76
2022-08-11T23:38:42.771Z,99.79
2022-08-11T23:41:29.321Z,99.70
2022-08-11T23:44:15.008Z,99.05
2022-08-11T23:47:02.298Z,99.43
2022-08-11T23:49:48.498Z,99.57
2022-08-11T23:52:35.114Z,99.68
2022-08-11T23:55:21.795Z,99.38
2022-08-11T23:58:07.524Z,100.00
